CheckWX is a tool to help pilots better visualize weather data.  It is not intended as a substitute for an official pre-flight weather briefing.

14:42:54 UTC

KBUR TAF
Bob Hope Airport
Burbank, California, USA
KBUR 201301Z 2013/2112 VRB03KT P6SM SCT025 FM201700 18010KT P6SM SCT035 FM210300 VRB03KT P6SM SKC

May-20@
13:00 UTC

May-20 @ 13:00 UTC

May-20@
17:00 UTC

May-20 @ 17:00 UTC

KBUR 201301Z 2013/2112 VRB03KT P6SM SCT025
Wind
  • Variable at 3 KTS
Cloud Levels
  • Scattered at 2,500' AGL

May-20@
17:00 UTC

May-20 @ 17:00 UTC

May-21@
03:00 UTC

May-21 @ 03:00 UTC

FM201700 18010KT P6SM SCT035

From

From Standard forecast or significant change

Wind
  • 180° at 10 KTS
Cloud Levels
  • Scattered at 3,500' AGL

May-21@
03:00 UTC

May-21 @ 03:00 UTC

May-21@
12:00 UTC

May-21 @ 12:00 UTC

FM210300 VRB03KT P6SM SKC

From

From Standard forecast or significant change

Wind
  • Variable at 3 KTS
Cloud Levels
  • Clear skies